Aérodrome :
LOGIN :

S'inscrire | Disclaimer

   EN    FR    IT 

 










Légende :    VFR   VFR Marginal   IFR   IFR Intensif   IFR Très Intensif
Visi : 
Plafond : 
>= 8 km
>= 3000ft
5 à 8 km
1000 à 3000 ft
1500m à 5 km
500 à 1000 ft
800 à 1500m
200 à 500 ft
< 800m
< 200 ft
Symboles :   Orages  Brouillard  Fortes neiges  Fortes précipitations  Vent > 20 kt
SIGMETs :   Divers  Orages  Givrage  Turbulence  Onde Orograph.  Cendres Volcan.






- Altitude de l'aérodrome : 1043 ft
- Code IATA : SLD


LZSL - Sliac

DERNIER METAR :
  • 150030Z 22003KT 9999 -RA BKN021 08/05 Q1013

METARs EXPIRÉS :
  • 150000Z 07003KT 040V100 9999 BKN023 08/05 Q1012
  • 142330Z VRB01KT 9999 BKN028 08/05 Q1012
  • 142300Z VRB02KT 9999 FEW032 BKN043 08/05 Q1012
  • 142230Z 06003KT 9999 BKN036 08/05 Q1012
  • 142200Z 06002KT 9999 FEW042 BKN070 08/05 Q1012

TAF TAF LZSL
Valide du 15 à 00h jusqu'au 15 à 09h UTC


142300Z 1500/1509 VRB02KT 9999 BKN030
TEMPO 1500/1508 4000 BR SCT007 BKN020
PROB40
TEMPO 1501/1506 2200 -DZ BR BKN010



MET'MAP, la Météo Aéronautique d'un coup d'oeil ! - Copyright ORBIFLY Décembre 2007 - Disclaimer

ORBIFLY MET'MAP TEAM :

Programmation & Développement : Alexandra Zaïnal
Conception & Développement : Baudouin d'Aumeries
Co-Programmation & Développement : Marc-Olivier Méhu
Soutien technique & logistique : Manuel Goepfert

Contact : metmap@orbifly.com




SOURCES & CREDITS :

   NOAA